sensor_id;sensor_type;location;lat;lon;timestamp;pressure;altitude;pressure_sealevel;temperature;humidity
5966;BME280;3009;43.224;27.976;2023-04-25T00:02:13;99922.78;;;10.40;100.00
5966;BME280;3009;43.224;27.976;2023-04-25T00:04:42;99910.34;;;10.35;100.00
5966;BME280;3009;43.224;27.976;2023-04-25T00:07:10;99909.22;;;10.27;100.00
5966;BME280;3009;43.224;27.976;2023-04-25T00:09:39;99904.81;;;10.23;100.00
5966;BME280;3009;43.224;27.976;2023-04-25T00:12:07;99904.66;;;10.19;100.00
5966;BME280;3009;43.224;27.976;2023-04-25T00:14:36;99900.09;;;10.11;100.00
5966;BME280;3009;43.224;27.976;2023-04-25T00:17:04;99887.78;;;10.19;100.00
5966;BME280;3009;43.224;27.976;2023-04-25T00:19:34;99893.31;;;10.05;100.00
5966;BME280;3009;43.224;27.976;2023-04-25T00:22:04;99891.59;;;10.09;100.00
5966;BME280;3009;43.224;27.976;2023-04-25T00:24:33;99895.69;;;10.06;100.00
5966;BME280;3009;43.224;27.976;2023-04-25T00:27:01;99889.69;;;10.01;100.00
5966;BME280;3009;43.224;27.976;2023-04-25T00:29:29;99890.94;;;10.03;100.00
5966;BME280;3009;43.224;27.976;2023-04-25T00:31:58;99888.28;;;10.03;100.00
5966;BME280;3009;43.224;27.976;2023-04-25T00:34:26;99877.88;;;9.93;100.00
5966;BME280;3009;43.224;27.976;2023-04-25T00:36:56;99878.50;;;9.90;100.00
5966;BME280;3009;43.224;27.976;2023-04-25T00:39:24;99879.00;;;9.92;100.00
5966;BME280;3009;43.224;27.976;2023-04-25T00:41:54;99879.00;;;9.92;100.00
5966;BME280;3009;43.224;27.976;2023-04-25T00:44:22;99876.94;;;9.89;100.00
5966;BME280;3009;43.224;27.976;2023-04-25T00:46:53;99871.91;;;9.87;100.00
5966;BME280;3009;43.224;27.976;2023-04-25T00:49:22;99876.00;;;9.85;100.00
5966;BME280;3009;43.224;27.976;2023-04-25T00:51:50;99874.41;;;9.84;100.00
5966;BME280;3009;43.224;27.976;2023-04-25T00:54:20;99869.69;;;9.81;100.00
5966;BME280;3009;43.224;27.976;2023-04-25T00:56:50;99862.75;;;9.80;100.00
5966;BME280;3009;43.224;27.976;2023-04-25T00:59:19;99861.97;;;9.79;100.00
5966;BME280;3009;43.224;27.976;2023-04-25T01:01:48;99860.56;;;9.82;100.00
5966;BME280;3009;43.224;27.976;2023-04-25T01:04:17;99853.16;;;9.79;100.00
5966;BME280;3009;43.224;27.976;2023-04-25T01:06:46;99853.47;;;9.77;100.00
5966;BME280;3009;43.224;27.976;2023-04-25T01:09:14;99858.03;;;9.76;100.00
5966;BME280;3009;43.224;27.976;2023-04-25T01:11:44;99856.47;;;9.75;100.00
5966;BME280;3009;43.224;27.976;2023-04-25T01:14:13;99845.75;;;9.75;100.00
5966;BME280;3009;43.224;27.976;2023-04-25T01:16:41;99855.50;;;9.71;100.00
5966;BME280;3009;43.224;27.976;2023-04-25T01:19:11;99848.75;;;9.74;100.00
5966;BME280;3009;43.224;27.976;2023-04-25T01:21:45;99841.03;;;9.72;100.00
5966;BME280;3009;43.224;27.976;2023-04-25T01:24:13;99840.72;;;9.74;100.00
5966;BME280;3009;43.224;27.976;2023-04-25T01:26:42;99838.69;;;9.71;100.00
5966;BME280;3009;43.224;27.976;2023-04-25T01:29:16;99845.75;;;9.67;100.00
5966;BME280;3009;43.224;27.976;2023-04-25T01:31:45;99833.16;;;9.67;100.00
5966;BME280;3009;43.224;27.976;2023-04-25T01:34:14;99835.19;;;9.70;100.00
5966;BME280;3009;43.224;27.976;2023-04-25T01:36:44;99842.13;;;9.71;100.00
5966;BME280;3009;43.224;27.976;2023-04-25T01:39:12;99831.75;;;9.70;100.00
5966;BME280;3009;43.224;27.976;2023-04-25T01:41:41;99833.63;;;9.69;100.00
5966;BME280;3009;43.224;27.976;2023-04-25T01:44:10;99831.28;;;9.68;100.00
5966;BME280;3009;43.224;27.976;2023-04-25T01:46:38;99827.16;;;9.70;100.00
5966;BME280;3009;43.224;27.976;2023-04-25T01:49:07;99822.94;;;9.69;100.00
5966;BME280;3009;43.224;27.976;2023-04-25T01:51:35;99821.97;;;9.65;100.00
5966;BME280;3009;43.224;27.976;2023-04-25T01:54:05;99819.75;;;9.67;100.00
5966;BME280;3009;43.224;27.976;2023-04-25T01:56:36;99817.72;;;9.64;100.00
5966;BME280;3009;43.224;27.976;2023-04-25T01:59:05;99813.31;;;9.68;100.00
5966;BME280;3009;43.224;27.976;2023-04-25T02:01:33;99799.63;;;9.70;100.00
5966;BME280;3009;43.224;27.976;2023-04-25T02:04:02;99806.06;;;9.69;100.00
5966;BME280;3009;43.224;27.976;2023-04-25T02:06:31;99811.09;;;9.70;100.00
5966;BME280;3009;43.224;27.976;2023-04-25T02:08:59;99800.38;;;9.70;100.00
5966;BME280;3009;43.224;27.976;2023-04-25T02:11:29;99799.28;;;9.71;100.00
5966;BME280;3009;43.224;27.976;2023-04-25T02:13:57;99789.69;;;9.70;100.00
5966;BME280;3009;43.224;27.976;2023-04-25T02:16:25;99795.34;;;9.69;100.00
5966;BME280;3009;43.224;27.976;2023-04-25T02:18:54;99795.03;;;9.70;100.00
5966;BME280;3009;43.224;27.976;2023-04-25T02:21:22;99789.84;;;9.74;100.00
5966;BME280;3009;43.224;27.976;2023-04-25T02:23:50;99791.72;;;9.73;100.00
5966;BME280;3009;43.224;27.976;2023-04-25T02:26:19;99793.63;;;9.73;100.00
5966;BME280;3009;43.224;27.976;2023-04-25T02:28:49;99786.38;;;9.73;100.00
5966;BME280;3009;43.224;27.976;2023-04-25T02:31:18;99787.00;;;9.79;100.00
5966;BME280;3009;43.224;27.976;2023-04-25T02:33:47;99764.50;;;9.80;100.00
5966;BME280;3009;43.224;27.976;2023-04-25T02:36:16;99765.28;;;9.81;100.00
5966;BME280;3009;43.224;27.976;2023-04-25T02:38:44;99761.81;;;9.89;100.00
5966;BME280;3009;43.224;27.976;2023-04-25T02:41:12;99757.53;;;9.88;100.00
5966;BME280;3009;43.224;27.976;2023-04-25T02:43:42;99751.88;;;9.89;100.00
5966;BME280;3009;43.224;27.976;2023-04-25T02:46:12;99752.19;;;9.88;100.00
5966;BME280;3009;43.224;27.976;2023-04-25T02:48:41;99747.94;;;9.87;100.00
5966;BME280;3009;43.224;27.976;2023-04-25T02:51:09;99751.72;;;9.86;100.00
5966;BME280;3009;43.224;27.976;2023-04-25T02:53:38;99748.25;;;9.85;100.00
5966;BME280;3009;43.224;27.976;2023-04-25T02:56:06;99747.94;;;9.87;100.00
5966;BME280;3009;43.224;27.976;2023-04-25T02:58:34;99741.47;;;9.88;100.00
5966;BME280;3009;43.224;27.976;2023-04-25T03:01:03;99737.53;;;9.85;100.00
5966;BME280;3009;43.224;27.976;2023-04-25T03:03:33;99741.47;;;9.88;100.00
5966;BME280;3009;43.224;27.976;2023-04-25T03:06:01;99745.44;;;9.82;100.00
5966;BME280;3009;43.224;27.976;2023-04-25T03:08:30;99753.91;;;9.84;100.00
5966;BME280;3009;43.224;27.976;2023-04-25T03:10:59;99744.47;;;9.86;100.00
5966;BME280;3009;43.224;27.976;2023-04-25T03:13:27;99752.03;;;9.84;100.00
5966;BME280;3009;43.224;27.976;2023-04-25T03:15:56;99742.56;;;9.87;100.00
5966;BME280;3009;43.224;27.976;2023-04-25T03:18:25;99748.09;;;9.82;100.00
5966;BME280;3009;43.224;27.976;2023-04-25T03:20:55;99741.63;;;9.83;100.00
5966;BME280;3009;43.224;27.976;2023-04-25T03:23:23;99736.59;;;9.81;100.00
5966;BME280;3009;43.224;27.976;2023-04-25T03:25:52;99743.06;;;9.89;100.00
5966;BME280;3009;43.224;27.976;2023-04-25T03:28:21;99737.53;;;9.94;100.00
5966;BME280;3009;43.224;27.976;2023-04-25T03:30:49;99737.03;;;10.01;100.00
5966;BME280;3009;43.224;27.976;2023-04-25T03:33:18;99741.28;;;10.02;100.00
5966;BME280;3009;43.224;27.976;2023-04-25T03:35:46;99738.72;;;10.14;100.00
5966;BME280;3009;43.224;27.976;2023-04-25T03:38:16;99738.72;;;10.14;100.00
5966;BME280;3009;43.224;27.976;2023-04-25T03:40:45;99731.72;;;10.31;100.00
5966;BME280;3009;43.224;27.976;2023-04-25T03:43:13;99731.41;;;10.41;100.00
5966;BME280;3009;43.224;27.976;2023-04-25T03:45:42;99729.63;;;10.54;100.00
5966;BME280;3009;43.224;27.976;2023-04-25T03:48:11;99726.94;;;10.54;100.00
5966;BME280;3009;43.224;27.976;2023-04-25T03:50:39;99720.66;;;10.50;100.00
5966;BME280;3009;43.224;27.976;2023-04-25T03:53:08;99717.56;;;10.39;100.00
5966;BME280;3009;43.224;27.976;2023-04-25T03:55:37;99723.25;;;10.28;100.00
5966;BME280;3009;43.224;27.976;2023-04-25T03:58:09;99726.69;;;10.29;100.00
5966;BME280;3009;43.224;27.976;2023-04-25T04:00:37;99723.06;;;10.34;100.00
5966;BME280;3009;43.224;27.976;2023-04-25T04:03:06;99718.19;;;10.36;100.00
5966;BME280;3009;43.224;27.976;2023-04-25T04:05:34;99711.91;;;10.23;100.00
5966;BME280;3009;43.224;27.976;2023-04-25T04:08:04;99714.44;;;10.19;100.00
5966;BME280;3009;43.224;27.976;2023-04-25T04:10:32;99717.59;;;10.21;100.00
5966;BME280;3009;43.224;27.976;2023-04-25T04:13:03;99716.94;;;10.24;100.00
5966;BME280;3009;43.224;27.976;2023-04-25T04:15:31;99718.47;;;10.73;100.00
5966;BME280;3009;43.224;27.976;2023-04-25T04:17:59;99720.88;;;11.83;100.00
5966;BME280;3009;43.224;27.976;2023-04-25T04:20:29;99706.59;;;12.90;100.00
5966;BME280;3009;43.224;27.976;2023-04-25T04:22:58;99680.66;;;13.39;100.00
5966;BME280;3009;43.224;27.976;2023-04-25T04:25:26;99668.38;;;14.33;100.00
5966;BME280;3009;43.224;27.976;2023-04-25T04:27:55;99669.41;;;14.96;100.00
5966;BME280;3009;43.224;27.976;2023-04-25T04:30:25;99670.25;;;15.63;100.00
5966;BME280;3009;43.224;27.976;2023-04-25T04:32:56;99670.50;;;16.00;100.00
5966;BME280;3009;43.224;27.976;2023-04-25T04:35:25;99662.00;;;15.98;100.00
5966;BME280;3009;43.224;27.976;2023-04-25T04:37:53;99663.06;;;15.70;100.00
5966;BME280;3009;43.224;27.976;2023-04-25T04:40:22;99662.88;;;14.62;100.00
5966;BME280;3009;43.224;27.976;2023-04-25T04:42:50;99669.09;;;13.67;100.00
5966;BME280;3009;43.224;27.976;2023-04-25T04:45:20;99655.25;;;13.52;100.00
5966;BME280;3009;43.224;27.976;2023-04-25T04:47:50;99668.31;;;14.14;100.00
5966;BME280;3009;43.224;27.976;2023-04-25T04:50:19;99667.34;;;15.94;100.00
5966;BME280;3009;43.224;27.976;2023-04-25T04:52:47;99659.63;;;18.31;86.56
5966;BME280;3009;43.224;27.976;2023-04-25T04:55:15;99661.56;;;18.97;75.23
5966;BME280;3009;43.224;27.976;2023-04-25T04:57:44;99659.69;;;18.34;77.38
5966;BME280;3009;43.224;27.976;2023-04-25T05:00:13;99656.00;;;18.71;77.54
5966;BME280;3009;43.224;27.976;2023-04-25T05:02:42;99654.88;;;18.83;72.61
5966;BME280;3009;43.224;27.976;2023-04-25T05:05:12;99650.56;;;18.71;75.14
5966;BME280;3009;43.224;27.976;2023-04-25T05:07:41;99644.69;;;19.93;67.22
5966;BME280;3009;43.224;27.976;2023-04-25T05:10:09;99649.22;;;19.24;67.00
5966;BME280;3009;43.224;27.976;2023-04-25T05:12:38;99651.28;;;19.85;64.90
5966;BME280;3009;43.224;27.976;2023-04-25T05:15:06;99647.41;;;19.93;63.54
5966;BME280;3009;43.224;27.976;2023-04-25T05:17:35;99639.06;;;19.00;66.26
5966;BME280;3009;43.224;27.976;2023-04-25T05:20:05;99650.63;;;21.05;60.23
5966;BME280;3009;43.224;27.976;2023-04-25T05:22:35;99657.28;;;21.68;54.85
5966;BME280;3009;43.224;27.976;2023-04-25T05:25:04;99649.47;;;21.06;55.86
5966;BME280;3009;43.224;27.976;2023-04-25T05:27:33;99640.75;;;20.12;60.48
5966;BME280;3009;43.224;27.976;2023-04-25T05:30:02;99646.63;;;21.28;55.79
5966;BME280;3009;43.224;27.976;2023-04-25T05:32:31;99642.31;;;20.13;57.78
5966;BME280;3009;43.224;27.976;2023-04-25T05:34:59;99645.81;;;19.60;61.04
5966;BME280;3009;43.224;27.976;2023-04-25T05:37:28;99639.25;;;20.00;61.70
5966;BME280;3009;43.224;27.976;2023-04-25T05:39:58;99640.75;;;20.41;59.59
5966;BME280;3009;43.224;27.976;2023-04-25T05:42:26;99630.69;;;20.13;59.89
5966;BME280;3009;43.224;27.976;2023-04-25T05:44:55;99630.97;;;20.51;56.63
5966;BME280;3009;43.224;27.976;2023-04-25T05:47:23;99635.31;;;19.73;58.27
5966;BME280;3009;43.224;27.976;2023-04-25T05:49:52;99620.78;;;18.89;62.34
5966;BME280;3009;43.224;27.976;2023-04-25T05:52:20;99621.69;;;19.33;60.32
5966;BME280;3009;43.224;27.976;2023-04-25T05:54:48;99616.97;;;19.12;62.14
5966;BME280;3009;43.224;27.976;2023-04-25T05:57:22;99619.50;;;18.69;61.70
5966;BME280;3009;43.224;27.976;2023-04-25T05:59:50;99613.31;;;18.02;64.86
5966;BME280;3009;43.224;27.976;2023-04-25T06:02:19;99611.22;;;19.50;61.15
5966;BME280;3009;43.224;27.976;2023-04-25T06:04:49;99617.03;;;21.27;55.06
5966;BME280;3009;43.224;27.976;2023-04-25T06:07:19;99612.41;;;20.17;55.97
5966;BME280;3009;43.224;27.976;2023-04-25T06:09:47;99615.06;;;19.30;59.86
5966;BME280;3009;43.224;27.976;2023-04-25T06:12:16;99613.16;;;19.35;60.04
5966;BME280;3009;43.224;27.976;2023-04-25T06:14:46;99615.91;;;19.85;57.54
5966;BME280;3009;43.224;27.976;2023-04-25T06:17:14;99605.63;;;18.81;60.49
5966;BME280;3009;43.224;27.976;2023-04-25T06:19:42;99614.31;;;18.38;62.65
5966;BME280;3009;43.224;27.976;2023-04-25T06:22:11;99615.78;;;17.73;65.99
5966;BME280;3009;43.224;27.976;2023-04-25T06:24:39;99611.50;;;17.72;67.31
5966;BME280;3009;43.224;27.976;2023-04-25T06:27:07;99609.94;;;17.26;69.72
5966;BME280;3009;43.224;27.976;2023-04-25T06:29:36;99611.34;;;16.79;73.69
5966;BME280;3009;43.224;27.976;2023-04-25T06:32:05;99608.31;;;16.54;74.67
5966;BME280;3009;43.224;27.976;2023-04-25T06:34:34;99605.38;;;15.82;78.71
5966;BME280;3009;43.224;27.976;2023-04-25T06:37:02;99604.47;;;15.32;84.15
5966;BME280;3009;43.224;27.976;2023-04-25T06:39:30;99606.78;;;15.53;84.57
5966;BME280;3009;43.224;27.976;2023-04-25T06:41:59;99599.66;;;15.64;85.70
5966;BME280;3009;43.224;27.976;2023-04-25T06:44:27;99601.59;;;16.44;82.37
5966;BME280;3009;43.224;27.976;2023-04-25T06:46:56;99601.81;;;16.89;74.09
5966;BME280;3009;43.224;27.976;2023-04-25T06:49:26;99602.56;;;16.59;75.64
5966;BME280;3009;43.224;27.976;2023-04-25T06:51:54;99600.09;;;16.77;76.61
5966;BME280;3009;43.224;27.976;2023-04-25T06:54:23;99600.38;;;15.84;80.82
5966;BME280;3009;43.224;27.976;2023-04-25T06:56:53;99600.22;;;16.00;81.57
5966;BME280;3009;43.224;27.976;2023-04-25T06:59:22;99607.31;;;15.62;85.57
5966;BME280;3009;43.224;27.976;2023-04-25T07:01:50;99607.03;;;16.74;81.63
5966;BME280;3009;43.224;27.976;2023-04-25T07:04:19;99602.00;;;18.55;68.58
5966;BME280;3009;43.224;27.976;2023-04-25T07:06:49;99603.31;;;20.63;58.47
5966;BME280;3009;43.224;27.976;2023-04-25T07:09:17;99601.94;;;19.97;59.17
5966;BME280;3009;43.224;27.976;2023-04-25T07:11:45;99601.84;;;19.15;60.87
5966;BME280;3009;43.224;27.976;2023-04-25T07:14:14;99593.69;;;18.19;62.81
5966;BME280;3009;43.224;27.976;2023-04-25T07:16:42;99581.41;;;18.47;61.54
5966;BME280;3009;43.224;27.976;2023-04-25T07:19:10;99590.97;;;20.30;55.92
5966;BME280;3009;43.224;27.976;2023-04-25T07:21:40;99588.66;;;21.20;51.52
5966;BME280;3009;43.224;27.976;2023-04-25T07:24:09;99584.44;;;21.09;50.44
5966;BME280;3009;43.224;27.976;2023-04-25T07:26:38;99587.53;;;19.57;55.64
5966;BME280;3009;43.224;27.976;2023-04-25T07:29:06;99585.44;;;20.55;51.12
5966;BME280;3009;43.224;27.976;2023-04-25T07:31:35;99586.94;;;20.78;49.61
5966;BME280;3009;43.224;27.976;2023-04-25T07:34:03;99586.88;;;20.88;50.15
5966;BME280;3009;43.224;27.976;2023-04-25T07:36:32;99583.63;;;19.22;56.40
5966;BME280;3009;43.224;27.976;2023-04-25T07:39:00;99565.13;;;18.51;60.26
5966;BME280;3009;43.224;27.976;2023-04-25T07:41:31;99560.75;;;18.21;62.43
5966;BME280;3009;43.224;27.976;2023-04-25T07:43:59;99558.50;;;17.78;64.36
5966;BME280;3009;43.224;27.976;2023-04-25T07:46:28;99565.69;;;17.11;68.92
5966;BME280;3009;43.224;27.976;2023-04-25T07:48:56;99556.84;;;16.80;69.46
5966;BME280;3009;43.224;27.976;2023-04-25T07:51:25;99564.13;;;16.76;69.76
5966;BME280;3009;43.224;27.976;2023-04-25T07:53:53;99563.34;;;16.45;71.30
5966;BME280;3009;43.224;27.976;2023-04-25T07:56:22;99567.50;;;16.70;72.83
5966;BME280;3009;43.224;27.976;2023-04-25T07:58:51;99564.44;;;16.71;70.29
5966;BME280;3009;43.224;27.976;2023-04-25T08:01:20;99561.06;;;16.17;73.74
5966;BME280;3009;43.224;27.976;2023-04-25T08:03:48;99559.56;;;15.93;77.53
5966;BME280;3009;43.224;27.976;2023-04-25T08:06:17;99560.09;;;16.02;77.62
5966;BME280;3009;43.224;27.976;2023-04-25T08:08:46;99569.44;;;16.08;77.72
5966;BME280;3009;43.224;27.976;2023-04-25T08:11:15;99568.88;;;16.53;77.15
5966;BME280;3009;43.224;27.976;2023-04-25T08:13:43;99580.19;;;16.62;75.63
5966;BME280;3009;43.224;27.976;2023-04-25T08:16:13;99585.88;;;15.96;79.69
5966;BME280;3009;43.224;27.976;2023-04-25T08:18:42;99582.03;;;16.54;78.26
5966;BME280;3009;43.224;27.976;2023-04-25T08:21:10;99596.59;;;16.16;80.48
5966;BME280;3009;43.224;27.976;2023-04-25T08:23:39;99597.09;;;15.98;81.84
5966;BME280;3009;43.224;27.976;2023-04-25T08:26:08;99596.63;;;16.46;81.41
5966;BME280;3009;43.224;27.976;2023-04-25T08:28:37;99587.50;;;16.58;80.32
5966;BME280;3009;43.224;27.976;2023-04-25T08:31:06;99586.06;;;16.68;80.41
5966;BME280;3009;43.224;27.976;2023-04-25T08:33:35;99583.00;;;15.62;83.80
5966;BME280;3009;43.224;27.976;2023-04-25T08:36:04;99592.53;;;16.29;80.82
5966;BME280;3009;43.224;27.976;2023-04-25T08:38:32;99585.41;;;16.17;77.77
5966;BME280;3009;43.224;27.976;2023-04-25T08:41:01;99586.13;;;15.64;80.84
5966;BME280;3009;43.224;27.976;2023-04-25T08:43:30;99576.22;;;15.49;84.62
5966;BME280;3009;43.224;27.976;2023-04-25T08:45:59;99585.13;;;15.76;83.07
5966;BME280;3009;43.224;27.976;2023-04-25T08:48:28;99579.38;;;16.01;82.28
5966;BME280;3009;43.224;27.976;2023-04-25T08:50:58;99584.28;;;16.48;79.39
5966;BME280;3009;43.224;27.976;2023-04-25T08:53:28;99578.91;;;15.95;78.39
5966;BME280;3009;43.224;27.976;2023-04-25T08:56:00;99573.50;;;15.95;79.37
5966;BME280;3009;43.224;27.976;2023-04-25T08:58:29;99578.91;;;15.95;77.60
5966;BME280;3009;43.224;27.976;2023-04-25T09:00:58;99578.94;;;16.25;76.66
5966;BME280;3009;43.224;27.976;2023-04-25T09:03:27;99585.06;;;16.19;75.62
5966;BME280;3009;43.224;27.976;2023-04-25T09:05:57;99591.47;;;15.60;77.86
5966;BME280;3009;43.224;27.976;2023-04-25T09:08:26;99582.25;;;15.38;77.18
5966;BME280;3009;43.224;27.976;2023-04-25T09:10:54;99573.28;;;15.34;76.71
5966;BME280;3009;43.224;27.976;2023-04-25T09:13:26;99577.13;;;15.80;75.70
5966;BME280;3009;43.224;27.976;2023-04-25T09:15:57;99576.22;;;16.22;74.33
5966;BME280;3009;43.224;27.976;2023-04-25T09:18:26;99576.13;;;16.18;72.80
5966;BME280;3009;43.224;27.976;2023-04-25T09:21:05;99568.59;;;16.31;71.84
5966;BME280;3009;43.224;27.976;2023-04-25T09:23:43;99571.16;;;15.47;75.71
5966;BME280;3009;43.224;27.976;2023-04-25T09:26:14;99566.34;;;16.06;74.52
5966;BME280;3009;43.224;27.976;2023-04-25T09:28:44;99566.34;;;16.37;72.16
5966;BME280;3009;43.224;27.976;2023-04-25T09:31:20;99566.03;;;16.42;70.56
5966;BME280;3009;43.224;27.976;2023-04-25T09:33:49;99558.69;;;16.73;69.61
5966;BME280;3009;43.224;27.976;2023-04-25T09:36:26;99565.31;;;16.48;71.31
5966;BME280;3009;43.224;27.976;2023-04-25T09:38:55;99551.13;;;16.25;72.11
5966;BME280;3009;43.224;27.976;2023-04-25T09:41:24;99557.56;;;16.17;72.11
5966;BME280;3009;43.224;27.976;2023-04-25T09:43:56;99550.22;;;15.87;74.65
5966;BME280;3009;43.224;27.976;2023-04-25T09:46:33;99545.28;;;16.23;74.42
5966;BME280;3009;43.224;27.976;2023-04-25T09:49:06;99546.97;;;16.31;73.76
5966;BME280;3009;43.224;27.976;2023-04-25T09:51:36;99538.25;;;16.79;71.60
5966;BME280;3009;43.224;27.976;2023-04-25T09:54:04;99539.06;;;16.83;71.57
5966;BME280;3009;43.224;27.976;2023-04-25T09:56:36;99540.66;;;16.88;70.71
5966;BME280;3009;43.224;27.976;2023-04-25T09:59:05;99538.28;;;16.82;71.25
5966;BME280;3009;43.224;27.976;2023-04-25T10:01:35;99541.34;;;16.81;71.15
5966;BME280;3009;43.224;27.976;2023-04-25T10:04:06;99530.72;;;16.95;70.47
5966;BME280;3009;43.224;27.976;2023-04-25T10:06:38;99530.06;;;16.75;71.84
5966;BME280;3009;43.224;27.976;2023-04-25T10:09:08;99533.19;;;17.11;70.82
5966;BME280;3009;43.224;27.976;2023-04-25T10:11:36;99524.19;;;17.45;69.38
5966;BME280;3009;43.224;27.976;2023-04-25T10:14:06;99515.88;;;17.71;69.25
5966;BME280;3009;43.224;27.976;2023-04-25T10:16:35;99517.31;;;17.62;68.95
5966;BME280;3009;43.224;27.976;2023-04-25T10:19:04;99513.59;;;17.81;67.57
5966;BME280;3009;43.224;27.976;2023-04-25T10:21:33;99511.44;;;17.52;67.75
5966;BME280;3009;43.224;27.976;2023-04-25T10:24:05;99508.53;;;17.76;67.64
5966;BME280;3009;43.224;27.976;2023-04-25T10:26:33;99500.69;;;18.26;65.37
5966;BME280;3009;43.224;27.976;2023-04-25T10:29:03;99499.66;;;18.63;64.30
5966;BME280;3009;43.224;27.976;2023-04-25T10:31:32;99503.25;;;19.00;63.10
5966;BME280;3009;43.224;27.976;2023-04-25T10:34:01;99496.28;;;19.06;62.39
5966;BME280;3009;43.224;27.976;2023-04-25T10:36:31;99502.78;;;18.76;63.69
5966;BME280;3009;43.224;27.976;2023-04-25T10:39:04;99496.28;;;19.13;62.61
5966;BME280;3009;43.224;27.976;2023-04-25T10:41:52;99493.59;;;18.07;65.58
5966;BME280;3009;43.224;27.976;2023-04-25T10:44:21;99494.22;;;17.82;65.81
5966;BME280;3009;43.224;27.976;2023-04-25T10:46:50;99497.53;;;17.54;68.95
5966;BME280;3009;43.224;27.976;2023-04-25T10:49:32;99497.28;;;16.80;72.86
5966;BME280;3009;43.224;27.976;2023-04-25T10:52:18;99491.47;;;16.44;74.25
5966;BME280;3009;43.224;27.976;2023-04-25T10:54:49;99493.16;;;16.26;76.82
5966;BME280;3009;43.224;27.976;2023-04-25T10:57:29;99493.28;;;16.71;75.45
5966;BME280;3009;43.224;27.976;2023-04-25T10:59:59;99503.19;;;16.56;75.48
5966;BME280;3009;43.224;27.976;2023-04-25T11:02:28;99502.19;;;16.71;75.23
5966;BME280;3009;43.224;27.976;2023-04-25T11:04:56;99501.13;;;16.11;77.21
5966;BME280;3009;43.224;27.976;2023-04-25T11:07:31;99497.34;;;16.50;78.08
5966;BME280;3009;43.224;27.976;2023-04-25T11:10:05;99499.25;;;16.50;78.28
5966;BME280;3009;43.224;27.976;2023-04-25T11:12:33;99502.00;;;16.53;77.59
5966;BME280;3009;43.224;27.976;2023-04-25T11:15:03;99502.41;;;16.55;76.59
5966;BME280;3009;43.224;27.976;2023-04-25T11:17:32;99497.13;;;16.32;78.17
5966;BME280;3009;43.224;27.976;2023-04-25T11:20:00;99492.03;;;16.61;76.40
5966;BME280;3009;43.224;27.976;2023-04-25T11:22:31;99502.50;;;16.62;75.89
5966;BME280;3009;43.224;27.976;2023-04-25T11:25:06;99502.78;;;16.88;75.32
5966;BME280;3009;43.224;27.976;2023-04-25T11:27:38;99494.31;;;16.93;73.53
5966;BME280;3009;43.224;27.976;2023-04-25T11:30:12;99495.16;;;16.97;72.36
5966;BME280;3009;43.224;27.976;2023-04-25T11:32:40;99488.41;;;17.21;71.87
5966;BME280;3009;43.224;27.976;2023-04-25T11:35:10;99488.56;;;17.43;69.53
5966;BME280;3009;43.224;27.976;2023-04-25T11:37:39;99488.16;;;16.96;69.93
5966;BME280;3009;43.224;27.976;2023-04-25T11:40:09;99479.44;;;17.17;71.13
5966;BME280;3009;43.224;27.976;2023-04-25T11:42:39;99475.25;;;17.27;68.86
5966;BME280;3009;43.224;27.976;2023-04-25T11:45:07;99472.25;;;17.35;66.83
5966;BME280;3009;43.224;27.976;2023-04-25T11:47:36;99476.47;;;17.33;67.65
5966;BME280;3009;43.224;27.976;2023-04-25T11:50:07;99471.53;;;17.46;67.29
5966;BME280;3009;43.224;27.976;2023-04-25T11:52:37;99470.53;;;17.68;65.37
5966;BME280;3009;43.224;27.976;2023-04-25T11:55:09;99463.88;;;17.59;61.46
5966;BME280;3009;43.224;27.976;2023-04-25T11:57:38;99468.31;;;17.29;62.04
5966;BME280;3009;43.224;27.976;2023-04-25T12:00:10;99462.22;;;17.43;59.68
5966;BME280;3009;43.224;27.976;2023-04-25T12:02:44;99465.13;;;17.16;58.83
5966;BME280;3009;43.224;27.976;2023-04-25T12:05:14;99468.25;;;16.77;59.88
5966;BME280;3009;43.224;27.976;2023-04-25T12:08:09;99461.03;;;16.92;61.24
5966;BME280;3009;43.224;27.976;2023-04-25T12:10:40;99449.41;;;16.88;62.14
5966;BME280;3009;43.224;27.976;2023-04-25T12:13:20;99444.19;;;17.13;61.63
5966;BME280;3009;43.224;27.976;2023-04-25T12:15:49;99434.91;;;17.11;62.29
5966;BME280;3009;43.224;27.976;2023-04-25T12:18:19;99428.41;;;16.78;62.00
5966;BME280;3009;43.224;27.976;2023-04-25T12:20:48;99431.28;;;16.55;64.47
5966;BME280;3009;43.224;27.976;2023-04-25T12:23:17;99422.81;;;16.56;65.46
5966;BME280;3009;43.224;27.976;2023-04-25T12:25:46;99421.06;;;16.78;64.73
5966;BME280;3009;43.224;27.976;2023-04-25T12:28:17;99421.63;;;16.57;63.40
5966;BME280;3009;43.224;27.976;2023-04-25T12:30:56;99417.88;;;16.32;65.53
5966;BME280;3009;43.224;27.976;2023-04-25T12:33:26;99408.06;;;16.50;67.49
5966;BME280;3009;43.224;27.976;2023-04-25T12:35:55;99422.31;;;16.13;69.36
5966;BME280;3009;43.224;27.976;2023-04-25T12:38:25;99422.28;;;16.09;71.30
5966;BME280;3009;43.224;27.976;2023-04-25T12:40:56;99422.75;;;15.85;73.00
5966;BME280;3009;43.224;27.976;2023-04-25T12:43:24;99414.00;;;15.95;74.87
5966;BME280;3009;43.224;27.976;2023-04-25T12:45:54;99405.84;;;15.91;76.95
5966;BME280;3009;43.224;27.976;2023-04-25T12:48:23;99407.38;;;15.62;78.87
5966;BME280;3009;43.224;27.976;2023-04-25T12:50:52;99409.56;;;15.26;84.15
5966;BME280;3009;43.224;27.976;2023-04-25T12:53:21;99398.38;;;14.78;92.38
5966;BME280;3009;43.224;27.976;2023-04-25T12:55:51;99393.72;;;14.98;95.50
5966;BME280;3009;43.224;27.976;2023-04-25T12:58:25;99396.63;;;15.39;93.84
5966;BME280;3009;43.224;27.976;2023-04-25T13:00:53;99409.59;;;15.56;90.09
5966;BME280;3009;43.224;27.976;2023-04-25T13:03:22;99402.81;;;15.39;90.50
5966;BME280;3009;43.224;27.976;2023-04-25T13:05:50;99401.66;;;15.40;92.42
5966;BME280;3009;43.224;27.976;2023-04-25T13:08:19;99393.75;;;15.55;93.13
5966;BME280;3009;43.224;27.976;2023-04-25T13:10:48;99409.88;;;15.48;91.46
5966;BME280;3009;43.224;27.976;2023-04-25T13:13:16;99400.31;;;15.81;90.66
5966;BME280;3009;43.224;27.976;2023-04-25T13:15:45;99404.44;;;15.74;90.06
5966;BME280;3009;43.224;27.976;2023-04-25T13:18:14;99402.59;;;15.79;89.98
5966;BME280;3009;43.224;27.976;2023-04-25T13:20:43;99402.44;;;15.98;89.11
5966;BME280;3009;43.224;27.976;2023-04-25T13:23:12;99398.38;;;16.15;87.41